Terminal Aerodrome Forecast
Issued by NWS

Home | Current Version | Previous Version | Text Only | Print | Product List | Glossary On
Versions: 1 2 3 4 5 6 7 8 9 10 11 12 13 14 15
000
FTUS44 KEPZ 291957 AAA
TAFTCS
TAF AMD
KTCS 291957Z 2920/3018 04012KT P6SM VCTS SCT090CB BKN250
      TEMPO 2920/2924 VRB15G25KT 3SM TSRA BKN060CB OVC090
     FM300000 32005KT P6SM VCTS SCT060CB BKN100
     FM300300 30006KT P6SM SCT120 BKN250=

USA.gov is the U.S. government's official web portal to all federal, state and local government web resources and services.